Time;durP1;ratioP1;P1;durP2;ratioP2;P2;SDS_P1;SDS_P2;PMS_P1;PMS_P2;Temp;Humidity;BMP_temperature;BMP_pressure;BME280_temperature;BME280_humidity;BME280_pressure;Samples;Min_cycle;Max_cycle;Signal;HPM_P1;HPM_P2
2022/01/30 00:00:45;;;;;;;5.80;3.53;;;;;;;;;;5011325;28;20034;-80
2022/01/30 00:03:11;;;;;;;6.80;3.22;;;;;;;;;;5027486;28;20034;-83
2022/01/30 00:05:38;;;;;;;4.50;2.90;;;;;;;;;;5044244;28;20058;-79
2022/01/30 00:08:04;;;;;;;5.63;3.20;;;;;;;;;;5015257;28;20041;-83
2022/01/30 00:10:37;;;;;;;7.38;3.13;;;;;;;;;;5041376;28;20117;-82
2022/01/30 00:13:04;;;;;;;7.90;4.20;;;;;;;;;;5024946;28;20030;-80
2022/01/30 00:15:52;;;;;;;5.72;3.80;;;;;;;;;;5011798;28;20377;-81
2022/01/30 00:22:01;;;;;;;6.35;3.83;;;;;;;;;;5014810;28;20025;-81
2022/01/30 00:23:59;;;;;;;6.95;3.15;;;;;;;;;;4997200;28;20073;-80
2022/01/30 00:26:29;;;;;;;6.45;3.35;;;;;;;;;;5011251;28;20676;-80
2022/01/30 00:28:56;;;;;;;6.32;3.47;;;;;;;;;;5011559;28;20049;-81
2022/01/30 00:31:24;;;;;;;6.60;3.53;;;;;;;;;;5017155;28;20038;-81
2022/01/30 00:33:50;;;;;;;7.10;3.60;;;;;;;;;;5015036;28;20030;-79
2022/01/30 00:36:16;;;;;;;5.15;3.00;;;;;;;;;;5045950;28;20495;-80
2022/01/30 00:38:42;;;;;;;5.18;3.10;;;;;;;;;;5021997;28;20045;-82
2022/01/30 00:41:08;;;;;;;6.40;3.40;;;;;;;;;;5017077;28;20088;-79
2022/01/30 00:43:35;;;;;;;6.35;3.38;;;;;;;;;;5014805;28;20026;-79
2022/01/30 00:46:01;;;;;;;6.65;3.80;;;;;;;;;;5020010;28;20467;-79
2022/01/30 00:48:27;;;;;;;5.75;3.17;;;;;;;;;;5015047;28;20030;-81
2022/01/30 00:50:53;;;;;;;7.50;3.92;;;;;;;;;;5011577;28;20053;-84
2022/01/30 00:53:19;;;;;;;6.97;3.95;;;;;;;;;;5024558;28;20064;-81
2022/01/30 00:55:45;;;;;;;6.70;3.70;;;;;;;;;;5017774;28;20061;-81
2022/01/30 00:58:12;;;;;;;8.45;4.18;;;;;;;;;;5019161;28;20022;-82
2022/01/30 01:00:38;;;;;;;8.18;4.57;;;;;;;;;;5017551;28;20101;-84
2022/01/30 01:03:04;;;;;;;7.97;4.30;;;;;;;;;;5026500;28;20030;-86
2022/01/30 01:05:32;;;;;;;12.00;5.80;;;;;;;;;;5043851;28;20032;-84
2022/01/30 01:08:02;;;;;;;9.05;4.50;;;;;;;;;;5031121;28;20030;-81
2022/01/30 01:23:52;;;;;;;7.88;4.38;;;;;;;;;;5024332;28;20040;-81
2022/01/30 01:26:19;;;;;;;10.73;5.47;;;;;;;;;;5021896;28;20026;-83
2022/01/30 01:28:45;;;;;;;11.13;5.18;;;;;;;;;;5038426;28;20034;-81
2022/01/30 01:31:12;;;;;;;8.88;5.10;;;;;;;;;;5040606;28;20095;-83
2022/01/30 01:36:10;;;;;;;12.93;4.88;;;;;;;;;;5025003;28;20539;-86
2022/01/30 01:38:36;;;;;;;14.20;4.68;;;;;;;;;;5026332;28;20037;-79
2022/01/30 01:41:02;;;;;;;8.70;4.20;;;;;;;;;;5025275;28;20494;-82
2022/01/30 01:43:29;;;;;;;7.20;4.25;;;;;;;;;;5026348;28;20049;-81
2022/01/30 01:45:58;;;;;;;8.68;4.00;;;;;;;;;;5023702;28;20026;-80
2022/01/30 01:48:24;;;;;;;9.77;4.07;;;;;;;;;;5022107;28;20071;-80
2022/01/30 01:50:54;;;;;;;11.68;4.18;;;;;;;;;;5023365;28;20140;-82
2022/01/30 01:53:22;;;;;;;7.88;3.38;;;;;;;;;;5020367;28;20037;-82
2022/01/30 01:55:48;;;;;;;9.82;4.25;;;;;;;;;;5017697;28;20037;-84
2022/01/30 01:58:14;;;;;;;8.98;4.00;;;;;;;;;;5016818;28;20065;-81
2022/01/30 02:00:40;;;;;;;9.93;4.32;;;;;;;;;;5014303;28;20393;-82
2022/01/30 02:03:06;;;;;;;10.88;4.70;;;;;;;;;;5018611;28;20030;-83
2022/01/30 02:05:35;;;;;;;9.23;4.72;;;;;;;;;;5017944;28;20033;-82
2022/01/30 02:10:56;;;;;;;14.05;5.97;;;;;;;;;;5020472;28;20476;-81
2022/01/30 02:24:20;;;;;;;14.65;6.13;;;;;;;;;;5023149;28;20104;-82
2022/01/30 02:26:47;;;;;;;18.48;5.60;;;;;;;;;;5017920;28;20066;-81
2022/01/30 02:29:13;;;;;;;12.25;5.18;;;;;;;;;;5014532;28;20036;-81
2022/01/30 02:31:41;;;;;;;20.50;5.35;;;;;;;;;;5021426;28;20069;-85
2022/01/30 02:34:07;;;;;;;14.15;4.40;;;;;;;;;;5016497;28;20037;-82
2022/01/30 02:36:33;;;;;;;16.45;5.03;;;;;;;;;;5018549;28;20035;-81
2022/01/30 02:39:00;;;;;;;10.90;4.22;;;;;;;;;;5016570;28;20049;-80
2022/01/30 02:41:26;;;;;;;13.45;4.60;;;;;;;;;;5014346;28;20076;-80
2022/01/30 02:44:10;;;;;;;12.82;4.82;;;;;;;;;;5015729;28;20503;-82
2022/01/30 02:46:40;;;;;;;10.38;4.43;;;;;;;;;;5029197;28;20120;-80
2022/01/30 02:51:58;;;;;;;13.13;4.45;;;;;;;;;;5014138;28;20029;-79
2022/01/30 02:54:26;;;;;;;14.02;4.35;;;;;;;;;;5046387;28;20464;-80
2022/01/30 02:56:52;;;;;;;12.98;4.10;;;;;;;;;;5015424;28;20029;-83
2022/01/30 02:59:18;;;;;;;13.00;4.10;;;;;;;;;;5011780;28;20076;-83
2022/01/30 03:01:44;;;;;;;13.60;3.97;;;;;;;;;;5014320;28;20037;-82
2022/01/30 03:04:11;;;;;;;16.10;4.75;;;;;;;;;;5016034;28;20109;-87
2022/01/30 03:06:37;;;;;;;16.67;4.82;;;;;;;;;;5028558;28;20026;-78
2022/01/30 03:09:04;;;;;;;11.10;4.00;;;;;;;;;;5017452;28;20037;-85
2022/01/30 03:11:30;;;;;;;14.60;4.70;;;;;;;;;;5019299;28;20088;-81
2022/01/30 03:13:56;;;;;;;12.93;4.05;;;;;;;;;;5028710;28;20092;-84
2022/01/30 03:16:22;;;;;;;14.55;4.60;;;;;;;;;;5016353;28;21920;-79
2022/01/30 03:18:48;;;;;;;20.73;4.38;;;;;;;;;;5013465;28;20029;-83
2022/01/30 03:21:15;;;;;;;13.88;4.18;;;;;;;;;;5014800;28;20026;-80
2022/01/30 03:23:41;;;;;;;16.25;4.38;;;;;;;;;;5012528;28;20061;-83
2022/01/30 03:26:09;;;;;;;20.65;4.95;;;;;;;;;;5015190;28;20056;-81
2022/01/30 03:28:35;;;;;;;15.13;3.80;;;;;;;;;;5008868;28;20538;-82
2022/01/30 03:31:06;;;;;;;14.85;3.72;;;;;;;;;;5008374;28;20037;-83
2022/01/30 03:33:32;;;;;;;19.88;4.53;;;;;;;;;;5007720;28;20483;-82
2022/01/30 03:35:58;;;;;;;13.60;3.60;;;;;;;;;;5013246;28;20040;-81
2022/01/30 03:38:24;;;;;;;20.58;4.35;;;;;;;;;;5013242;28;20022;-85
2022/01/30 03:40:51;;;;;;;18.27;3.83;;;;;;;;;;5010381;28;20053;-83
2022/01/30 03:43:17;;;;;;;16.02;4.20;;;;;;;;;;5009809;28;20025;-82
2022/01/30 03:45:44;;;;;;;17.50;4.32;;;;;;;;;;5018378;28;20049;-84
2022/01/30 03:48:10;;;;;;;13.98;3.72;;;;;;;;;;5013842;28;20022;-81
2022/01/30 03:50:36;;;;;;;12.85;3.72;;;;;;;;;;5012732;28;20030;-85
2022/01/30 03:53:02;;;;;;;14.63;3.53;;;7.00;99.90;;;;;;5010368;28;20496;-79
2022/01/30 03:55:28;;;;;;;21.48;5.53;;;;;;;;;;5018298;28;20034;-81
2022/01/30 03:57:55;;;;;;;15.20;3.30;;;;;;;;;;5032133;28;20053;-81
2022/01/30 04:00:21;;;;;;;18.95;3.85;;;;;;;;;;5014224;28;20064;-81
2022/01/30 04:02:47;;;;;;;19.35;3.88;;;;;;;;;;5032028;28;20407;-83
2022/01/30 04:05:13;;;;;;;18.33;3.45;;;;;;;;;;5018641;28;20034;-81
2022/01/30 04:07:40;;;;;;;18.10;3.90;;;;;;;;;;5023058;28;20065;-79
2022/01/30 04:10:07;;;;;;;18.65;5.53;;;;;;;;;;5043334;28;20030;-82
2022/01/30 04:12:33;;;;;;;20.02;5.63;;;;;;;;;;5016844;28;20022;-84
2022/01/30 04:14:59;;;;;;;17.73;4.18;;;;;;;;;;5020634;28;20029;-84
2022/01/30 04:17:26;;;;;;;24.73;4.50;;;;;;;;;;5022591;28;20042;-82
2022/01/30 04:19:52;;;;;;;18.75;4.90;;;;;;;;;;5041890;28;20029;-81
2022/01/30 04:22:18;;;;;;;18.15;3.90;;;;;;;;;;5039947;28;20026;-81
2022/01/30 04:24:43;;;;;;;22.23;4.90;;;6.70;99.90;;;;;;5025127;28;20026;-81
2022/01/30 04:27:09;;;;;;;22.58;4.20;;;;;;;;;;5023376;28;20030;-81
2022/01/30 04:29:36;;;;;;;23.55;4.47;;;6.60;99.90;;;;;;5019372;28;20030;-83
2022/01/30 04:32:03;;;;;;;15.20;3.72;;;6.60;99.90;;;;;;5019776;28;20058;-80
2022/01/30 04:34:30;;;;;;;17.17;4.70;;;6.50;99.90;;;;;;5018252;28;20030;-79
2022/01/30 04:53:06;;;;;;;17.50;4.43;;;;;;;;;;5017273;28;20102;-85
2022/01/30 05:06:09;;;;;;;18.58;3.80;;;;;;;;;;5020670;28;20033;-83
2022/01/30 05:08:35;;;;;;;18.20;3.58;;;6.20;99.90;;;;;;5045559;28;20033;-82
2022/01/30 05:11:07;;;;;;;21.42;4.88;;;;;;;;;;5016526;28;20030;-80
2022/01/30 05:13:35;;;;;;;20.27;5.32;;;;;;;;;;5034391;28;20050;-80
2022/01/30 05:16:02;;;;;;;19.42;3.75;;;;;;;;;;5032667;28;20022;-82
2022/01/30 05:18:29;;;;;;;19.35;4.97;;;6.00;99.90;;;;;;5027832;28;20030;-81
2022/01/30 05:20:55;;;;;;;17.08;3.90;;;;;;;;;;5007682;28;20026;-81
2022/01/30 05:23:22;;;;;;;22.80;4.65;;;;;;;;;;5018052;28;20025;-78
2022/01/30 05:25:49;;;;;;;15.20;4.07;;;;;;;;;;5032659;28;20089;-81
2022/01/30 05:28:16;;;;;;;19.27;4.25;;;6.00;99.90;;;;;;5014102;28;20060;-77
2022/01/30 05:30:43;;;;;;;12.32;4.03;;;6.00;99.90;;;;;;5013740;28;20042;-83
2022/01/30 05:33:09;;;;;;;15.32;4.07;;;;;;;;;;5027406;28;20030;-79
2022/01/30 05:35:35;;;;;;;13.00;3.92;;;5.80;99.90;;;;;;5016189;28;20030;-79
2022/01/30 05:38:03;;;;;;;19.00;4.68;;;6.00;99.90;;;;;;5012416;28;20488;-80
2022/01/30 05:40:29;;;;;;;20.08;4.07;;;;;;;;;;5019308;28;20286;-80
2022/01/30 05:42:55;;;;;;;16.75;4.35;;;;;;;;;;5017852;28;20018;-81
2022/01/30 05:48:15;;;;;;;17.70;3.55;;;6.10;99.90;;;;;;5013721;28;20453;-77
2022/01/30 05:50:41;;;;;;;21.40;4.10;;;;;;;;;;5005310;28;20104;-80
2022/01/30 05:53:07;;;;;;;15.48;4.63;;;;;;;;;;5015271;28;20618;-81
2022/01/30 05:55:33;;;;;;;20.48;4.22;;;;;;;;;;5014044;28;20032;-81
2022/01/30 05:58:00;;;;;;;22.13;4.93;;;;;;;;;;5026242;28;20046;-82
2022/01/30 06:00:26;;;;;;;12.55;4.30;;;;;;;;;;5009568;28;20029;-81
2022/01/30 06:02:52;;;;;;;15.77;3.95;;;;;;;;;;5034412;28;20469;-80
2022/01/30 06:05:20;;;;;;;16.98;4.20;;;;;;;;;;5016031;28;20041;-81
2022/01/30 06:07:52;;;;;;;22.67;3.90;;;;;;;;;;5044079;28;20030;-82
2022/01/30 06:10:20;;;;;;;19.27;4.43;;;6.10;99.90;;;;;;5019625;28;20053;-81
2022/01/30 06:12:46;;;;;;;19.85;4.85;;;;;;;;;;5014524;28;20026;-82
2022/01/30 06:15:13;;;;;;;18.60;5.45;;;;;;;;;;5039803;28;20026;-81
2022/01/30 06:17:39;;;;;;;26.55;6.57;;;;;;;;;;5022943;28;20030;-79
2022/01/30 06:20:05;;;;;;;22.00;5.45;;;6.20;99.90;;;;;;5026981;28;20072;-81
2022/01/30 06:22:31;;;;;;;21.15;5.05;;;;;;;;;;5019919;28;20031;-81
2022/01/30 06:24:57;;;;;;;20.38;5.80;;;;;;;;;;5030881;28;20392;-82
2022/01/30 06:27:23;;;;;;;28.23;6.70;;;;;;;;;;5034353;28;20034;-79
2022/01/30 06:29:49;;;;;;;22.05;7.13;;;;;;;;;;5020725;28;20025;-82
2022/01/30 06:32:16;;;;;;;24.38;6.35;;;;;;;;;;5018831;28;20034;-80
2022/01/30 06:34:42;;;;;;;22.45;6.05;;;;;;;;;;5027386;28;20084;-79
2022/01/30 06:37:08;;;;;;;24.08;6.97;;;5.90;99.90;;;;;;5019615;28;20472;-80
2022/01/30 06:39:34;;;;;;;23.25;7.07;;;;;;;;;;5019755;28;20040;-81
2022/01/30 06:42:00;;;;;;;26.95;6.15;;;;;;;;;;5021682;28;20057;-79
2022/01/30 06:44:26;;;;;;;16.92;4.80;;;;;;;;;;5035378;28;20125;-84
2022/01/30 06:46:52;;;;;;;18.88;4.95;;;;;;;;;;5030891;28;20038;-80
2022/01/30 06:49:18;;;;;;;13.20;4.20;;;;;;;;;;5026390;28;20148;-79
2022/01/30 06:51:44;;;;;;;19.98;3.97;;;;;;;;;;5017800;28;20026;-80
2022/01/30 06:54:10;;;;;;;23.98;5.40;;;;;;;;;;5016357;28;20049;-82
2022/01/30 06:56:36;;;;;;;21.13;4.28;;;;;;;;;;5017712;28;20038;-81
2022/01/30 06:59:02;;;;;;;22.70;4.20;;;;;;;;;;5012302;28;20080;-81
2022/01/30 07:01:28;;;;;;;16.42;4.07;;;;;;;;;;5012396;28;20030;-84
2022/01/30 07:03:54;;;;;;;18.40;4.00;;;;;;;;;;5013555;28;20045;-82
2022/01/30 07:06:20;;;;;;;17.20;4.72;;;;;;;;;;5015759;28;20069;-79
2022/01/30 07:08:46;;;;;;;15.63;4.38;;;;;;;;;;5014528;28;20049;-81
2022/01/30 07:11:15;;;;;;;23.92;4.25;;;;;;;;;;5007778;28;20022;-82
2022/01/30 07:13:41;;;;;;;20.60;4.82;;;;;;;;;;5009777;28;20037;-83
2022/01/30 07:16:07;;;;;;;15.60;3.85;;;;;;;;;;5013849;28;20183;-82
2022/01/30 07:18:33;;;;;;;19.05;4.40;;;;;;;;;;5010086;28;20499;-82
2022/01/30 07:20:59;;;;;;;18.33;4.22;;;;;;;;;;5004195;28;20033;-81
2022/01/30 07:23:25;;;;;;;17.10;4.25;;;;;;;;;;5030728;28;20349;-81
2022/01/30 07:25:51;;;;;;;17.73;4.97;;;5.70;99.90;;;;;;5030704;28;20097;-80
2022/01/30 07:28:16;;;;;;;18.27;4.32;;;5.80;99.90;;;;;;5018471;28;20067;-79
2022/01/30 07:30:42;;;;;;;24.10;4.70;;;;;;;;;;5017343;28;20498;-81
2022/01/30 07:33:08;;;;;;;25.08;6.18;;;;;;;;;;5039003;28;20117;-79
2022/01/30 07:35:37;;;;;;;20.58;4.93;;;;;;;;;;5014481;28;20030;-81
2022/01/30 07:38:03;;;;;;;17.77;5.63;;;5.40;99.90;;;;;;5016521;28;20526;-82
2022/01/30 07:40:32;;;;;;;22.02;5.15;;;;;;;;;;5017747;28;20093;-81
2022/01/30 07:42:58;;;;;;;17.45;4.32;;;;;;;;;;5018417;28;20030;-83
2022/01/30 07:45:24;;;;;;;16.02;5.43;;;;;;;;;;5021927;28;20585;-81
2022/01/30 07:47:50;;;;;;;24.88;5.78;;;;;;;;;;5019434;28;20026;-79
2022/01/30 07:50:16;;;;;;;15.95;4.20;;;;;;;;;;5019596;28;20097;-81
2022/01/30 07:52:42;;;;;;;15.95;4.78;;;;;;;;;;5019016;28;20044;-81
2022/01/30 07:55:09;;;;;;;22.23;5.93;;;;;;;;;;5016419;28;20034;-84
2022/01/30 07:57:35;;;;;;;21.13;5.05;;;;;;;;;;5020051;28;20065;-81
2022/01/30 08:00:01;;;;;;;16.02;4.80;;;;;;;;;;5019569;28;20120;-83
2022/01/30 08:02:27;;;;;;;21.10;4.40;;;;;;;;;;5018944;28;20029;-82
2022/01/30 08:04:54;;;;;;;25.27;5.25;;;;;;;;;;5014525;28;20030;-83
2022/01/30 08:07:20;;;;;;;24.45;7.03;;;;;;;;;;5016809;28;20034;-81
2022/01/30 08:09:46;;;;;;;15.60;4.72;;;;;;;;;;5019658;28;20069;-79
2022/01/30 08:12:12;;;;;;;21.35;5.15;;;;;;;;;;5019662;28;20030;-79
2022/01/30 08:14:38;;;;;;;23.27;5.72;;;;;;;;;;5018859;28;20026;-81
2022/01/30 08:17:04;;;;;;;31.15;7.55;;;;;;;;;;5018421;28;20030;-80
2022/01/30 08:19:30;;;;;;;22.33;6.43;;;;;;;;;;5018655;28;20048;-84
2022/01/30 08:21:57;;;;;;;20.70;5.72;;;;;;;;;;5016677;28;20554;-80
2022/01/30 08:24:24;;;;;;;24.65;5.07;;;;;;;;;;5024287;28;20080;-79
2022/01/30 08:26:50;;;;;;;25.92;5.90;;;5.30;99.90;;;;;;5020017;28;20090;-79
2022/01/30 08:29:16;;;;;;;20.48;5.78;;;5.50;99.90;;;;;;5013026;28;20026;-82
2022/01/30 08:31:42;;;;;;;22.95;6.18;;;;;;;;;;5018125;28;20197;-79
2022/01/30 08:34:08;;;;;;;22.40;5.32;;;;;;;;;;5013567;28;20432;-82
2022/01/30 08:36:34;;;;;;;22.85;5.07;;;;;;;;;;5013492;28;20489;-81
2022/01/30 08:39:00;;;;;;;18.42;4.85;;;;;;;;;;5036341;28;20031;-81
2022/01/30 08:41:26;;;;;;;22.42;5.97;;;;;;;;;;5015582;28;20033;-81
2022/01/30 08:43:52;;;;;;;25.23;4.85;;;;;;;;;;5028769;28;20026;-83
2022/01/30 08:46:20;;;;;;;22.83;5.30;;;;;;;;;;5043175;28;20027;-80
2022/01/30 08:48:46;;;;;;;17.55;4.78;;;;;;;;;;5018621;28;20147;-83
2022/01/30 08:51:12;;;;;;;21.35;5.25;;;;;;;;;;5029022;28;20057;-80
2022/01/30 08:53:38;;;;;;;15.98;5.00;;;;;;;;;;5009924;28;20032;-80
2022/01/30 08:56:05;;;;;;;16.50;5.22;;;;;;;;;;5034684;28;20037;-79
2022/01/30 08:58:32;;;;;;;16.52;4.60;;;;;;;;;;5020124;28;20058;-81
2022/01/30 09:00:59;;;;;;;25.00;6.20;;;;;;;;;;5031599;28;20610;-80
2022/01/30 09:03:25;;;;;;;21.08;5.30;;;;;;;;;;5018475;28;20049;-81
2022/01/30 09:05:51;;;;;;;22.20;5.93;;;;;;;;;;5020605;28;20041;-79
2022/01/30 09:08:17;;;;;;;20.52;5.30;;;;;;;;;;5016507;28;20022;-79
2022/01/30 09:10:43;;;;;;;19.70;6.13;;;;;;;;;;5018608;28;20030;-80
2022/01/30 09:13:09;;;;;;;20.95;5.53;;;;;;;;;;5016273;28;20132;-87
2022/01/30 09:15:42;;;;;;;21.70;5.40;;;;;;;;;;5033328;28;20061;-83
2022/01/30 09:18:10;;;;;;;17.10;4.85;;;;;;;;;;5010852;28;20046;-79
2022/01/30 09:20:37;;;;;;;15.43;4.35;;;;;;;;;;5020668;28;20034;-81
2022/01/30 09:23:03;;;;;;;17.17;4.65;;;;;;;;;;5019201;28;20025;-79
2022/01/30 09:25:29;;;;;;;18.67;5.70;;;;;;;;;;5018444;28;20407;-79
2022/01/30 09:27:55;;;;;;;18.15;5.13;;;;;;;;;;5017684;28;20071;-78
2022/01/30 09:30:21;;;;;;;23.88;5.65;;;;;;;;;;5013476;28;20555;-82
2022/01/30 09:32:47;;;;;;;18.27;4.70;;;;;;;;;;5016890;28;20033;-83
2022/01/30 09:35:13;;;;;;;19.85;5.43;;;;;;;;;;5035841;28;20034;-86
2022/01/30 09:37:39;;;;;;;19.45;4.75;;;;;;;;;;5015435;28;20021;-86
2022/01/30 09:40:06;;;;;;;15.32;5.32;;;;;;;;;;5015693;28;20093;-81
2022/01/30 09:42:32;;;;;;;18.35;5.00;;;;;;;;;;5036680;28;20018;-81
2022/01/30 09:45:03;;;;;;;20.35;5.65;;;6.60;99.90;;;;;;5010269;28;20054;-79
2022/01/30 09:47:30;;;;;;;17.92;4.82;;;;;;;;;;5022535;28;20064;-80
2022/01/30 09:49:57;;;;;;;19.58;4.72;;;;;;;;;;5017615;28;20508;-82
2022/01/30 09:52:23;;;;;;;19.08;4.65;;;;;;;;;;5017821;28;20030;-80
2022/01/30 09:54:49;;;;;;;20.80;4.70;;;;;;;;;;5014651;28;20025;-82
2022/01/30 09:57:15;;;;;;;15.82;4.22;;;;;;;;;;5015421;28;20113;-80
2022/01/30 09:59:41;;;;;;;20.17;4.50;;;;;;;;;;5016771;28;20034;-81
2022/01/30 10:02:08;;;;;;;16.52;3.90;;;;;;;;;;5009368;28;20121;-79
2022/01/30 10:04:35;;;;;;;15.52;3.38;;;;;;;;;;5024804;28;20065;-79
2022/01/30 10:07:11;;;;;;;15.55;4.38;;;;;;;;;;5010652;28;20133;-79
2022/01/30 10:09:43;;;;;;;15.05;3.08;;;;;;;;;;5011859;28;20026;-79
2022/01/30 10:12:24;;;;;;;16.13;3.72;;;;;;;;;;5013689;28;20048;-79
2022/01/30 10:14:53;;;;;;;11.63;3.83;;;7.60;99.90;;;;;;5021713;28;20403;-80
2022/01/30 10:17:28;;;;;;;11.10;2.90;;;;;;;;;;5012710;28;20479;-79
2022/01/30 10:20:02;;;;;;;21.17;3.42;;;7.70;99.90;;;;;;5026126;28;20057;-79
2022/01/30 10:22:28;;;;;;;17.50;4.13;;;;;;;;;;5014185;28;20034;-80
2022/01/30 10:24:54;;;;;;;12.05;2.78;;;7.70;99.90;;;;;;5032536;28;20037;-82
2022/01/30 10:27:25;;;;;;;11.77;3.05;;;7.70;99.90;;;;;;5020556;28;20030;-79
2022/01/30 10:29:58;;;;;;;18.08;3.05;;;;;;;;;;5017775;28;20026;-83
2022/01/30 10:32:24;;;;;;;12.73;2.45;;;;;;;;;;5010064;28;20452;-81
2022/01/30 10:35:16;;;;;;;13.73;3.05;;;7.60;99.90;;;;;;5027983;28;20037;-78
2022/01/30 10:37:43;;;;;;;13.95;3.20;;;;;;;;;;5004845;28;20045;-80
2022/01/30 10:40:24;;;;;;;12.40;2.30;;;;;;;;;;5017316;28;20037;-83
2022/01/30 10:42:53;;;;;;;13.07;2.72;;;7.80;99.90;;;;;;5015402;28;21694;-79
2022/01/30 10:45:19;;;;;;;12.45;2.70;;;;;;;;;;5013613;28;20044;-80
2022/01/30 10:47:45;;;;;;;14.07;2.75;;;;;;;;;;5018436;28;20061;-78
2022/01/30 10:50:11;;;;;;;10.88;2.40;;;;;;;;;;5016995;28;20026;-79
2022/01/30 10:52:59;;;;;;;11.55;2.85;;;7.70;99.90;;;;;;5045701;28;20041;-81
2022/01/30 10:55:37;;;;;;;15.27;2.70;;;7.70;99.90;;;;;;5017796;28;20045;-84
2022/01/30 10:58:05;;;;;;;11.18;2.78;;;7.70;99.90;;;;;;5015290;28;20021;-80
2022/01/30 11:00:38;;;;;;;10.90;2.58;;;8.00;99.90;;;;;;5019461;28;20035;-79
2022/01/30 11:03:05;;;;;;;19.55;2.78;;;;;;;;;;5010175;28;20484;-85
2022/01/30 11:05:33;;;;;;;12.70;2.15;;;;;;;;;;5015813;28;20498;-86
2022/01/30 11:07:59;;;;;;;13.70;2.47;;;;;;;;;;5011755;28;20053;-80
2022/01/30 11:10:26;;;;;;;12.93;2.90;;;;;;;;;;5017963;28;20091;-84
2022/01/30 11:13:07;;;;;;;13.13;2.35;;;8.10;99.90;;;;;;5032139;28;20030;-86
2022/01/30 11:15:37;;;;;;;10.45;2.20;;;8.10;99.90;;;;;;5009778;28;20042;-83
2022/01/30 11:18:04;;;;;;;10.00;2.15;;;8.10;99.90;;;;;;5034054;28;20044;-81
2022/01/30 11:20:32;;;;;;;13.88;2.90;;;8.10;99.90;;;;;;5019562;28;20165;-82
2022/01/30 11:23:01;;;;;;;8.30;2.67;;;8.10;99.90;;;;;;5015302;28;20025;-83
2022/01/30 11:25:35;;;;;;;12.80;2.75;;;8.10;99.90;;;;;;5018358;28;20030;-84
2022/01/30 11:28:03;;;;;;;7.75;2.40;;;;;;;;;;5016696;28;20052;-82
2022/01/30 11:30:31;;;;;;;11.27;2.22;;;;;;;;;;5011368;28;20045;-80
2022/01/30 11:32:58;;;;;;;10.52;2.30;;;;;;;;;;5015609;28;20025;-80
2022/01/30 11:35:24;;;;;;;14.18;2.65;;;;;;;;;;5013375;28;20034;-82
2022/01/30 11:37:50;;;;;;;13.38;2.30;;;;;;;;;;5035916;28;20024;-81
2022/01/30 11:40:17;;;;;;;10.63;2.10;;;;;;;;;;5017970;28;20033;-84
2022/01/30 11:42:49;;;;;;;10.25;2.60;;;;;;;;;;5034086;28;20029;-83
2022/01/30 11:45:24;;;;;;;11.13;2.47;;;;;;;;;;5009998;28;20028;-80
2022/01/30 11:47:55;;;;;;;10.73;4.80;;;;;;;;;;5015957;28;20029;-83
2022/01/30 11:50:36;;;;;;;10.00;2.10;;;;;;;;;;5036340;28;20022;-83
2022/01/30 11:53:07;;;;;;;12.18;1.90;;;;;;;;;;5048214;28;20026;-80
2022/01/30 11:55:56;;;;;;;11.50;1.92;;;;;;;;;;5029297;28;20044;-80
2022/01/30 11:58:33;;;;;;;7.88;2.20;;;;;;;;;;5029233;28;20026;-80
2022/01/30 12:01:25;;;;;;;8.82;2.05;;;;;;;;;;5059429;28;20030;-83
2022/01/30 12:03:59;;;;;;;8.68;2.47;;;;;;;;;;5033956;28;20041;-80
2022/01/30 12:06:25;;;;;;;11.45;2.00;;;;;;;;;;5061403;28;20380;-83
2022/01/30 12:09:01;;;;;;;6.68;1.60;;;;;;;;;;5035212;28;20021;-85
2022/01/30 12:11:39;;;;;;;11.93;3.05;;;;;;;;;;5044381;28;20026;-86
2022/01/30 12:14:35;;;;;;;10.63;1.85;;;;;;;;;;5056216;28;20030;-83
2022/01/30 12:17:07;;;;;;;18.13;4.10;;;;;;;;;;5030860;28;20045;-85
2022/01/30 12:19:34;;;;;;;11.30;2.17;;;;;;;;;;5018726;28;20106;-84
2022/01/30 12:22:23;;;;;;;11.45;1.92;;;;;;;;;;5036680;28;20022;-80
2022/01/30 12:24:53;;;;;;;8.68;2.55;;;;;;;;;;5044454;28;20042;-82
2022/01/30 12:27:23;;;;;;;9.43;2.17;;;;;;;;;;5034722;28;20026;-80
2022/01/30 12:29:51;;;;;;;10.52;2.05;;;;;;;;;;5032472;28;20026;-81
2022/01/30 12:32:21;;;;;;;8.32;2.13;;;;;;;;;;5045977;28;20038;-82
2022/01/30 12:35:07;;;;;;;8.00;2.00;;;;;;;;;;5029221;28;20089;-81
2022/01/30 12:37:38;;;;;;;9.48;2.58;;;;;;;;;;5032782;28;20093;-81
2022/01/30 12:40:16;;;;;;;8.15;1.65;;;;;;;;;;5010650;28;20061;-80
2022/01/30 12:42:44;;;;;;;9.02;2.58;;;;;;;;;;5033975;28;20065;-80
2022/01/30 12:48:45;;;;;;;10.10;1.80;;;;;;;;;;5023387;28;20041;-80
2022/01/30 12:51:14;;;;;;;13.20;2.47;;;;;;;;;;5044697;28;20052;-83
2022/01/30 12:53:42;;;;;;;12.07;2.25;;;;;;;;;;5023491;28;20105;-80
2022/01/30 12:56:11;;;;;;;5.63;1.80;;;;;;;;;;5026822;28;20022;-82
2022/01/30 12:58:42;;;;;;;10.93;2.40;;;;;;;;;;5028134;28;20049;-81
2022/01/30 13:04:10;;;;;;;12.13;2.20;;;;;;;;;;5026444;28;19928;-85
2022/01/30 13:06:46;;;;;;;10.07;2.75;;;;;;;;;;5038021;28;20045;-81
2022/01/30 13:09:25;;;;;;;8.85;1.73;;;;;;;;;;5036655;28;20026;-81
2022/01/30 13:11:52;;;;;;;8.25;1.95;;;;;;;;;;5021373;28;20033;-80
2022/01/30 13:14:18;;;;;;;13.05;2.03;;;;;;;;;;5044719;28;20118;-80
2022/01/30 13:16:49;;;;;;;8.35;2.15;;;;;;;;;;5029047;28;20093;-81
2022/01/30 13:19:28;;;;;;;16.25;2.58;;;;;;;;;;5027311;28;20025;-82
2022/01/30 13:21:54;;;;;;;8.73;2.15;;;;;;;;;;5027969;28;20042;-82
2022/01/30 13:24:23;;;;;;;10.80;2.22;;;;;;;;;;5053067;28;20034;-80
2022/01/30 13:26:55;;;;;;;7.93;1.85;;;;;;;;;;5026637;28;20057;-81
2022/01/30 13:29:22;;;;;;;15.35;3.00;;;;;;;;;;5031017;28;20125;-80
2022/01/30 13:31:52;;;;;;;12.90;2.92;;;;;;;;;;5027581;28;20030;-82
2022/01/30 13:34:21;;;;;;;10.27;1.90;;;;;;;;;;5044007;28;20030;-79
2022/01/30 13:36:54;;;;;;;9.05;1.83;;;;;;;;;;5026997;28;20034;-80
2022/01/30 13:39:31;;;;;;;10.65;2.00;;;;;;;;;;5027516;28;20029;-80
2022/01/30 13:42:26;;;;;;;6.00;1.83;;;;;;;;;;5023363;28;20025;-80
2022/01/30 13:45:04;;;;;;;12.32;2.20;;;;;;;;;;5026223;28;20029;-83
2022/01/30 13:47:31;;;;;;;13.32;2.30;;;;;;;;;;5022530;28;20047;-79
2022/01/30 13:49:57;;;;;;;6.82;2.03;;;;;;;;;;5030417;28;20026;-80
2022/01/30 13:52:30;;;;;;;12.63;1.90;;;;;;;;;;5018653;28;20022;-82
2022/01/30 13:55:07;;;;;;;11.57;2.17;;;;;;;;;;5033762;28;20037;-84
2022/01/30 13:57:35;;;;;;;11.60;2.20;;;;;;;;;;5028578;28;20101;-80
2022/01/30 14:10:43;;;;;;;11.57;2.73;;;;;;;;;;5101753;27;1853422;-85
2022/01/30 14:13:17;;;;;;;10.95;2.90;;;;;;;;;;5116884;28;20035;-87
2022/01/30 14:15:43;;;;;;;11.63;2.67;;;;;;;;;;5122338;28;20051;-89
2022/01/30 14:18:20;;;;;;;10.45;1.75;;;;;;;;;;5121625;28;20039;-88
2022/01/30 14:20:48;;;;;;;10.73;1.92;;;;;;;;;;5142652;28;20057;-84
2022/01/30 14:23:16;;;;;;;10.50;2.65;;;;;;;;;;5094045;28;20028;-84
2022/01/30 14:25:44;;;;;;;7.13;1.95;;;;;;;;;;5139819;28;20449;-88
2022/01/30 14:28:29;;;;;;;10.65;2.38;;;;;;;;;;5115985;28;20034;-84
2022/01/30 14:31:11;;;;;;;8.70;2.03;;;;;;;;;;5125274;28;20021;-85
2022/01/30 14:33:38;;;;;;;8.10;2.22;;;;;;;;;;5124019;28;20027;-87
2022/01/30 14:36:13;;;;;;;9.13;2.20;;;;;;;;;;5128952;28;20022;-90
2022/01/30 14:38:44;;;;;;;10.90;2.17;;;;;;;;;;5138717;28;20023;-84
2022/01/30 14:41:13;;;;;;;9.68;2.33;;;;;;;;;;5128331;28;20122;-86
2022/01/30 14:46:28;;;;;;;10.50;1.90;;;;;;;;;;5100341;28;20039;-90
2022/01/30 14:49:06;;;;;;;7.72;2.20;;;;;;;;;;5127945;28;20031;-88
2022/01/30 14:51:33;;;;;;;9.60;2.35;;;;;;;;;;5122376;28;20027;-91
2022/01/30 14:54:27;;;;;;;13.02;2.08;;;;;;;;;;5128703;28;20023;-87
2022/01/30 14:57:15;;;;;;;12.93;2.88;;;;;;;;;;5126717;28;20088;-89
2022/01/30 14:59:44;;;;;;;5.68;2.28;;;;;;;;;;5131883;28;20466;-88
2022/01/30 15:02:16;;;;;;;12.20;2.55;;;;;;;;;;5144855;28;20036;-88
2022/01/30 15:04:47;;;;;;;6.65;1.88;;;;;;;;;;5106979;28;20494;-90
2022/01/30 15:07:21;;;;;;;11.98;2.85;;;;;;;;;;5120446;28;20033;-91
2022/01/30 15:13:13;;;;;;;14.60;2.85;;;;;;;;;;5121119;28;20490;-83
2022/01/30 15:15:42;;;;;;;7.20;2.53;;;;;;;;;;5089857;28;20047;-86
2022/01/30 15:18:22;;;;;;;9.35;2.60;;;;;;;;;;5099532;28;20078;-85
2022/01/30 15:20:55;;;;;;;6.22;1.95;;;;;;;;;;5121118;28;20058;-86
2022/01/30 15:23:33;;;;;;;13.32;2.92;;;;;;;;;;5113807;28;20027;-89
2022/01/30 15:26:03;;;;;;;9.18;2.60;;;;;;;;;;5095713;28;20024;-87
2022/01/30 15:28:29;;;;;;;14.63;3.00;;;;;;;;;;5092462;28;20027;-86
2022/01/30 15:30:55;;;;;;;16.98;2.53;;;;;;;;;;5098363;28;20065;-88
2022/01/30 15:33:23;;;;;;;10.00;2.65;;;;;;;;;;5105069;28;20032;-88
2022/01/30 15:35:50;;;;;;;10.45;2.03;;;;;;;;;;5123677;28;20271;-89
2022/01/30 15:38:20;;;;;;;12.70;2.83;;;;;;;;;;5111966;28;20153;-88
2022/01/30 15:40:47;;;;;;;13.40;2.70;;;;;;;;;;5108673;28;20028;-87
2022/01/30 15:43:14;;;;;;;11.73;2.65;;;;;;;;;;5112564;28;20012;-88
2022/01/30 15:51:14;;;;;;;11.82;2.85;;;;;;;;;;5118162;28;20053;-82
2022/01/30 15:53:40;;;;;;;13.13;2.50;;;;;;;;;;5098396;28;20027;-86
2022/01/30 15:56:06;;;;;;;12.15;2.70;;;;;;;;;;5095917;28;20026;-84
2022/01/30 15:58:32;;;;;;;12.55;2.90;;;;;;;;;;5104849;28;20039;-84
2022/01/30 16:01:00;;;;;;;15.52;3.65;;;;;;;;;;5106837;28;20034;-85
2022/01/30 16:03:29;;;;;;;11.85;3.30;;;;;;;;;;5103597;28;20016;-80